createdAt,value
2023-01-13T00:00:25.215Z,95408
2023-01-13T00:01:35.168Z,95412
2023-01-13T00:02:45.127Z,95412
2023-01-13T00:03:55.179Z,95419
2023-01-13T00:05:04.191Z,95421
2023-01-13T00:06:14.086Z,95421
2023-01-13T00:07:24.032Z,95416
2023-01-13T00:08:34.032Z,95419
2023-01-13T00:09:43.031Z,95426
2023-01-13T00:10:52.989Z,95418
2023-01-13T00:12:01.955Z,95414
2023-01-13T00:13:11.929Z,95413
2023-01-13T00:14:21.848Z,95407
2023-01-13T00:15:30.767Z,95404
2023-01-13T00:16:40.659Z,95403
2023-01-13T00:17:49.552Z,95390
2023-01-13T00:18:59.810Z,95396
2023-01-13T00:20:10.138Z,95391
2023-01-13T00:21:20.639Z,95386
2023-01-13T00:22:31.804Z,95386
2023-01-13T00:23:41.779Z,95387
2023-01-13T00:24:51.729Z,95395
2023-01-13T00:26:01.608Z,95396
2023-01-13T00:27:11.545Z,95390
2023-01-13T00:28:20.439Z,95396
2023-01-13T00:29:30.321Z,95392
2023-01-13T00:30:39.225Z,95384
2023-01-13T00:31:49.159Z,95392
2023-01-13T00:32:59.149Z,95387
2023-01-13T00:34:08.111Z,95384
2023-01-13T00:35:18.067Z,95391
2023-01-13T00:36:26.906Z,95382
2023-01-13T00:37:36.791Z,95371
2023-01-13T00:38:46.718Z,95378
2023-01-13T00:39:55.642Z,95372
2023-01-13T00:41:04.588Z,95369
2023-01-13T00:42:14.519Z,95369
2023-01-13T00:43:24.501Z,95366
2023-01-13T00:44:34.476Z,95362
2023-01-13T00:45:43.431Z,95371
2023-01-13T00:46:52.457Z,95367
2023-01-13T00:48:02.368Z,95372
2023-01-13T00:49:10.356Z,95366
2023-01-13T00:50:20.491Z,95371
2023-01-13T00:51:30.419Z,95375
2023-01-13T00:52:42.121Z,95370
2023-01-13T00:53:50.329Z,95362
2023-01-13T00:55:00.263Z,95370
2023-01-13T00:56:10.262Z,95372
2023-01-13T00:57:21.193Z,95370
2023-01-13T00:58:31.143Z,95361
2023-01-13T00:59:41.089Z,95371
2023-01-13T01:00:52.221Z,95366
2023-01-13T01:02:02.190Z,95366
2023-01-13T01:03:12.025Z,95363
2023-01-13T01:04:21.046Z,95366
2023-01-13T01:05:31.040Z,95367
2023-01-13T01:06:40.984Z,95366
2023-01-13T01:07:49.976Z,95360
2023-01-13T01:08:59.937Z,95375
2023-01-13T01:10:09.929Z,95367
2023-01-13T01:11:20.068Z,95361
2023-01-13T01:12:30.017Z,95356
2023-01-13T01:13:40.010Z,95365
2023-01-13T01:14:48.977Z,95364
2023-01-13T01:15:58.980Z,95379
2023-01-13T01:17:07.907Z,95360
2023-01-13T01:18:16.857Z,95357
2023-01-13T01:19:26.823Z,95358
2023-01-13T01:20:36.814Z,95357
2023-01-13T01:21:46.770Z,95365
2023-01-13T01:22:56.720Z,95355
2023-01-13T01:24:06.697Z,95366
2023-01-13T01:25:16.760Z,95362
2023-01-13T01:26:26.642Z,95356
2023-01-13T01:27:35.566Z,95360
2023-01-13T01:28:45.537Z,95360
2023-01-13T01:29:55.493Z,95358
2023-01-13T01:31:05.500Z,95361
2023-01-13T01:32:15.389Z,95378
2023-01-13T01:33:25.327Z,95355
2023-01-13T01:34:34.298Z,95356
2023-01-13T01:35:44.320Z,95359
2023-01-13T01:36:54.373Z,95358
2023-01-13T01:38:04.437Z,95357
2023-01-13T01:39:14.403Z,95362
2023-01-13T01:40:24.358Z,95353
2023-01-13T01:41:34.281Z,95363
2023-01-13T01:42:44.422Z,95372
2023-01-13T01:43:53.407Z,95357
2023-01-13T01:45:02.363Z,95355
2023-01-13T01:46:12.329Z,95353
2023-01-13T01:47:21.297Z,95354
2023-01-13T01:48:31.268Z,95354
2023-01-13T01:49:41.240Z,95354
2023-01-13T01:50:51.213Z,95347
2023-01-13T01:52:01.234Z,95350
2023-01-13T01:53:11.235Z,95353
2023-01-13T01:54:20.197Z,95354
2023-01-13T01:55:30.149Z,95361
2023-01-13T01:56:39.117Z,95353
2023-01-13T01:57:48.069Z,95347
2023-01-13T01:58:58.034Z,95348
2023-01-13T02:00:06.983Z,95345
2023-01-13T02:01:17.035Z,95345
2023-01-13T02:02:26.894Z,95345
2023-01-13T02:03:36.854Z,95341
2023-01-13T02:04:46.809Z,95334
2023-01-13T02:05:55.807Z,95328
2023-01-13T02:07:05.755Z,95329
2023-01-13T02:08:15.773Z,95327
2023-01-13T02:09:24.720Z,95319
2023-01-13T02:10:34.777Z,95323
2023-01-13T02:11:44.814Z,95319
2023-01-13T02:12:53.806Z,95314
2023-01-13T02:14:03.727Z,95314
2023-01-13T02:15:13.695Z,95316
2023-01-13T02:16:23.674Z,95318
2023-01-13T02:17:33.578Z,95308
2023-01-13T02:18:42.525Z,95308
2023-01-13T02:19:52.498Z,95307
2023-01-13T02:21:02.539Z,95306
2023-01-13T02:22:12.477Z,95303
2023-01-13T02:23:22.478Z,95300
2023-01-13T02:24:31.422Z,95301
2023-01-13T02:25:41.403Z,95302
2023-01-13T02:26:51.384Z,95305
2023-01-13T02:28:01.308Z,95298
2023-01-13T02:29:11.286Z,95297
2023-01-13T02:30:21.263Z,95302
2023-01-13T02:31:31.259Z,95303
2023-01-13T02:32:41.187Z,95297
2023-01-13T02:33:50.150Z,95297
2023-01-13T02:34:59.156Z,95299
2023-01-13T02:36:09.157Z,95291
2023-01-13T02:37:19.080Z,95297
2023-01-13T02:38:28.097Z,95291
2023-01-13T02:39:38.054Z,95290
2023-01-13T02:40:48.024Z,95290
2023-01-13T02:41:58.016Z,95290
2023-01-13T02:43:08.010Z,95288
2023-01-13T02:44:18.959Z,95290
2023-01-13T02:45:28.941Z,95286
2023-01-13T02:46:37.934Z,95289
2023-01-13T02:47:46.871Z,95290
2023-01-13T02:48:55.806Z,95290
2023-01-13T02:50:04.744Z,95286
2023-01-13T02:51:13.744Z,95278
2023-01-13T02:52:23.705Z,95285
2023-01-13T02:53:33.650Z,95283
2023-01-13T02:54:42.579Z,95288
2023-01-13T02:55:52.565Z,95285
2023-01-13T02:57:02.527Z,95289
2023-01-13T02:58:12.534Z,95275
2023-01-13T02:59:22.448Z,95283
2023-01-13T03:00:32.261Z,95285
2023-01-13T03:01:42.084Z,95282
2023-01-13T03:02:51.761Z,95276
2023-01-13T03:04:01.525Z,95284
2023-01-13T03:05:11.277Z,95285
2023-01-13T03:06:21.040Z,95276
2023-01-13T03:07:30.764Z,95273
2023-01-13T03:08:40.494Z,95274
2023-01-13T03:09:49.282Z,95269
2023-01-13T03:10:59.058Z,95274
2023-01-13T03:12:08.781Z,95273
2023-01-13T03:13:16.515Z,95271
2023-01-13T03:14:26.264Z,95275
2023-01-13T03:15:36.029Z,95270
2023-01-13T03:16:44.814Z,95268
2023-01-13T03:17:54.521Z,95268
2023-01-13T03:19:04.253Z,95265
2023-01-13T03:20:14.001Z,95265
2023-01-13T03:21:23.805Z,95262
2023-01-13T03:22:33.514Z,95254
2023-01-13T03:23:43.299Z,95257
2023-01-13T03:24:52.087Z,95255
2023-01-13T03:26:01.828Z,95251
2023-01-13T03:27:11.597Z,95259
2023-01-13T03:28:20.360Z,95254
2023-01-13T03:29:30.096Z,95259
2023-01-13T03:30:39.851Z,95261
2023-01-13T03:31:48.538Z,95256
2023-01-13T03:32:58.314Z,95256
2023-01-13T03:34:08.063Z,95256
2023-01-13T03:35:16.797Z,95255
2023-01-13T03:36:25.537Z,95258
2023-01-13T03:37:35.366Z,95257
2023-01-13T03:38:44.142Z,95255
2023-01-13T03:39:53.895Z,95254
2023-01-13T03:41:03.604Z,95255
2023-01-13T03:42:13.345Z,95257
2023-01-13T03:43:22.085Z,95255
2023-01-13T03:44:32.754Z,95257
2023-01-13T03:45:41.581Z,95253
2023-01-13T03:46:50.146Z,95257
2023-01-13T03:47:59.805Z,95259
2023-01-13T03:49:08.525Z,95262
2023-01-13T03:50:18.299Z,95259
2023-01-13T03:51:28.031Z,95261
2023-01-13T03:52:37.775Z,95259
2023-01-13T03:53:47.597Z,95260
2023-01-13T03:54:57.342Z,95256
2023-01-13T03:56:06.174Z,95254
2023-01-13T03:57:15.947Z,95251
2023-01-13T03:58:25.691Z,95255
2023-01-13T03:59:34.422Z,95256
2023-01-13T04:00:44.165Z,95255
2023-01-13T04:01:54.027Z,95255
2023-01-13T04:03:03.695Z,95258
2023-01-13T04:04:13.443Z,95254
2023-01-13T04:05:23.205Z,95253
2023-01-13T04:06:32.957Z,95253
2023-01-13T04:07:42.705Z,95255
2023-01-13T04:08:52.480Z,95255
2023-01-13T04:10:02.303Z,95255
2023-01-13T04:11:11.990Z,95250
2023-01-13T04:12:21.725Z,95253
2023-01-13T04:13:31.479Z,95255
2023-01-13T04:14:41.204Z,95254
2023-01-13T04:15:51.032Z,95249
2023-01-13T04:16:59.692Z,95244
2023-01-13T04:18:09.457Z,95239
2023-01-13T04:19:22.556Z,95237
2023-01-13T04:20:34.009Z,95243
2023-01-13T04:21:42.805Z,95242
2023-01-13T04:22:52.576Z,95243
2023-01-13T04:24:01.337Z,95242
2023-01-13T04:25:11.084Z,95241
2023-01-13T04:26:20.815Z,95243
2023-01-13T04:27:30.577Z,95244
2023-01-13T04:28:40.324Z,95244
2023-01-13T04:29:50.057Z,95248
2023-01-13T04:30:59.879Z,95248
2023-01-13T04:32:08.634Z,95246
2023-01-13T04:33:18.378Z,95247
2023-01-13T04:34:28.515Z,95245
2023-01-13T04:35:37.886Z,95238
2023-01-13T04:36:47.626Z,95233
2023-01-13T04:37:57.430Z,95232
2023-01-13T04:39:07.263Z,95227
2023-01-13T04:40:16.998Z,95227
2023-01-13T04:41:26.789Z,95225
2023-01-13T04:42:36.548Z,95220
2023-01-13T04:43:46.309Z,95225
2023-01-13T04:44:56.086Z,95227
2023-01-13T04:46:04.844Z,95221
2023-01-13T04:47:14.593Z,95231
2023-01-13T04:48:24.378Z,95220
2023-01-13T04:49:34.118Z,95232
2023-01-13T04:50:43.851Z,95219
2023-01-13T04:51:53.584Z,95225
2023-01-13T04:53:03.311Z,95222
2023-01-13T04:54:12.141Z,95213
2023-01-13T04:55:21.840Z,95218
2023-01-13T04:56:31.554Z,95213
2023-01-13T04:57:41.328Z,95217
2023-01-13T04:58:50.030Z,95216
2023-01-13T04:59:59.780Z,95220
2023-01-13T05:01:09.604Z,95220
2023-01-13T05:02:19.341Z,95216
2023-01-13T05:03:28.035Z,95219
2023-01-13T05:04:37.837Z,95225
2023-01-13T05:05:47.637Z,95220
2023-01-13T05:06:57.373Z,95218
2023-01-13T05:08:07.175Z,95225
2023-01-13T05:09:16.944Z,95227
2023-01-13T05:10:25.688Z,95223
2023-01-13T05:11:35.440Z,95220
2023-01-13T05:12:44.212Z,95217
2023-01-13T05:13:53.038Z,95217
2023-01-13T05:15:02.804Z,95216
2023-01-13T05:16:11.733Z,95221
2023-01-13T05:17:21.465Z,95215
2023-01-13T05:18:31.237Z,95218
2023-01-13T05:19:39.953Z,95221
2023-01-13T05:20:49.737Z,95231
2023-01-13T05:21:58.479Z,95222
2023-01-13T05:23:07.254Z,95217
2023-01-13T05:24:16.987Z,95221
2023-01-13T05:25:26.730Z,95218
2023-01-13T05:26:36.458Z,95222
2023-01-13T05:27:46.215Z,95226
2023-01-13T05:28:56.029Z,95216
2023-01-13T05:30:05.840Z,95214
2023-01-13T05:31:16.619Z,95215
2023-01-13T05:32:26.334Z,95220
2023-01-13T05:33:35.980Z,95217
2023-01-13T05:34:44.843Z,95212
2023-01-13T05:35:54.574Z,95201
2023-01-13T05:37:04.301Z,95210
2023-01-13T05:38:15.025Z,95215
2023-01-13T05:39:23.763Z,95213
2023-01-13T05:40:32.607Z,95213
2023-01-13T05:41:42.314Z,95217
2023-01-13T05:42:52.069Z,95209
2023-01-13T05:44:00.828Z,95219
2023-01-13T05:45:10.549Z,95204
2023-01-13T05:46:19.395Z,95203
2023-01-13T05:47:28.052Z,95200
2023-01-13T05:48:37.806Z,95214
2023-01-13T05:49:47.547Z,95210
2023-01-13T05:50:57.297Z,95217
2023-01-13T05:52:06.033Z,95215
2023-01-13T05:53:15.816Z,95222
2023-01-13T05:54:25.551Z,95219
2023-01-13T05:55:35.268Z,95219
2023-01-13T05:56:45.038Z,95220
2023-01-13T05:57:54.790Z,95207
2023-01-13T05:59:05.529Z,95206
2023-01-13T06:00:15.301Z,95212
2023-01-13T06:01:25.068Z,95215
2023-01-13T06:02:33.857Z,95207
2023-01-13T06:03:43.565Z,95196
2023-01-13T06:04:53.279Z,95202
2023-01-13T06:06:02.087Z,95195
2023-01-13T06:07:11.833Z,95198
2023-01-13T06:08:21.626Z,95208
2023-01-13T06:09:31.409Z,95216
2023-01-13T06:10:39.176Z,95198
2023-01-13T06:11:48.948Z,95207
2023-01-13T06:12:58.660Z,95207
2023-01-13T06:14:07.382Z,95205
2023-01-13T06:15:16.142Z,95198
2023-01-13T06:16:24.934Z,95211
2023-01-13T06:17:34.587Z,95217
2023-01-13T06:18:44.349Z,95207
2023-01-13T06:19:52.078Z,95201
2023-01-13T06:21:00.851Z,95202
2023-01-13T06:22:10.621Z,95206
2023-01-13T06:23:19.361Z,95207
2023-01-13T06:24:29.064Z,95197
2023-01-13T06:25:37.847Z,95202
2023-01-13T06:26:47.643Z,95207
2023-01-13T06:27:57.446Z,95213
2023-01-13T06:29:06.160Z,95209
2023-01-13T06:30:15.910Z,95212
2023-01-13T06:31:25.691Z,95216
2023-01-13T06:32:34.494Z,95212
2023-01-13T06:33:44.247Z,95215
2023-01-13T06:34:53.011Z,95228
2023-01-13T06:36:02.759Z,95223
2023-01-13T06:37:12.485Z,95225
2023-01-13T06:38:22.314Z,95229
2023-01-13T06:39:32.017Z,95221
2023-01-13T06:40:41.766Z,95221
2023-01-13T06:41:51.508Z,95226
2023-01-13T06:43:01.293Z,95216
2023-01-13T06:44:11.023Z,95221
2023-01-13T06:45:19.800Z,95232
2023-01-13T06:46:29.564Z,95220
2023-01-13T06:47:38.251Z,95214
2023-01-13T06:48:47.973Z,95235
2023-01-13T06:49:56.767Z,95233
2023-01-13T06:51:06.498Z,95230
2023-01-13T06:52:15.240Z,95219
2023-01-13T06:53:25.011Z,95222
2023-01-13T06:54:34.797Z,95226
2023-01-13T06:55:44.577Z,95227
2023-01-13T06:56:53.332Z,95231
2023-01-13T06:58:03.085Z,95225
2023-01-13T06:59:13.888Z,95223
2023-01-13T07:00:22.583Z,95222
2023-01-13T07:01:32.512Z,95220
2023-01-13T07:02:43.204Z,95214
2023-01-13T07:03:52.863Z,95222
2023-01-13T07:05:02.580Z,95224
2023-01-13T07:06:11.303Z,95225
2023-01-13T07:07:20.104Z,95220
2023-01-13T07:08:29.887Z,95222
2023-01-13T07:09:39.623Z,95224
2023-01-13T07:10:49.360Z,95229
2023-01-13T07:11:58.103Z,95237
2023-01-13T07:13:07.855Z,95233
2023-01-13T07:14:17.610Z,95228
2023-01-13T07:15:27.339Z,95241
2023-01-13T07:16:36.113Z,95228
2023-01-13T07:17:45.822Z,95247
2023-01-13T07:18:55.621Z,95244
2023-01-13T07:20:03.345Z,95239
2023-01-13T07:21:13.099Z,95240
2023-01-13T07:22:22.828Z,95248
2023-01-13T07:23:32.583Z,95251
2023-01-13T07:24:42.381Z,95234
2023-01-13T07:25:52.132Z,95238
2023-01-13T07:27:01.919Z,95248
2023-01-13T07:28:10.688Z,95244
2023-01-13T07:29:20.433Z,95240
2023-01-13T07:30:29.301Z,95253
2023-01-13T07:31:38.920Z,95247
2023-01-13T07:32:48.696Z,95237
2023-01-13T07:33:58.431Z,95241
2023-01-13T07:35:08.686Z,95245
2023-01-13T07:36:17.485Z,95236
2023-01-13T07:37:27.216Z,95241
2023-01-13T07:38:36.966Z,95244
2023-01-13T07:39:46.724Z,95236
2023-01-13T07:40:55.483Z,95243
2023-01-13T07:42:05.281Z,95245
2023-01-13T07:43:14.998Z,95240
2023-01-13T07:44:24.730Z,95243
2023-01-13T07:45:34.569Z,95243
2023-01-13T07:46:44.238Z,95244
2023-01-13T07:47:54.020Z,95255
2023-01-13T07:49:03.752Z,95239
2023-01-13T07:50:13.520Z,95245
2023-01-13T07:51:23.232Z,95242
2023-01-13T07:52:33.008Z,95243
2023-01-13T07:53:42.742Z,95238
2023-01-13T07:54:51.469Z,95244
2023-01-13T07:56:01.186Z,95244
2023-01-13T07:57:10.896Z,95246
2023-01-13T07:58:20.643Z,95249
2023-01-13T07:59:30.408Z,95245
2023-01-13T08:00:40.183Z,95245
2023-01-13T08:01:50.005Z,95260
2023-01-13T08:02:59.737Z,95253
2023-01-13T08:04:08.418Z,95247
2023-01-13T08:05:18.173Z,95255
2023-01-13T08:06:27.948Z,95250
2023-01-13T08:07:37.696Z,95242
2023-01-13T08:08:47.469Z,95254
2023-01-13T08:09:57.198Z,95250
2023-01-13T08:11:06.987Z,95244
2023-01-13T08:12:16.707Z,95242
2023-01-13T08:13:25.427Z,95257
2023-01-13T08:14:35.237Z,95235
2023-01-13T08:15:45.007Z,95243
2023-01-13T08:16:53.835Z,95246
2023-01-13T08:18:03.516Z,95238
2023-01-13T08:19:13.310Z,95235
2023-01-13T08:20:23.125Z,95236
2023-01-13T08:21:32.901Z,95233
2023-01-13T08:22:42.670Z,95239
2023-01-13T08:23:52.439Z,95239
2023-01-13T08:25:02.151Z,95234
2023-01-13T08:26:10.972Z,95233
2023-01-13T08:27:20.674Z,95240
2023-01-13T08:28:30.371Z,95234
2023-01-13T08:29:39.059Z,95238
2023-01-13T08:30:48.993Z,95239
2023-01-13T08:31:58.629Z,95234
2023-01-13T08:33:08.356Z,95236
2023-01-13T08:34:18.101Z,95237
2023-01-13T08:35:25.812Z,95230
2023-01-13T08:36:35.554Z,95238
2023-01-13T08:37:45.285Z,95241
2023-01-13T08:38:55.038Z,95237
2023-01-13T08:40:04.768Z,95251
2023-01-13T08:41:14.492Z,95242
2023-01-13T08:42:24.240Z,95245
2023-01-13T08:43:35.051Z,95250
2023-01-13T08:44:43.792Z,95238
2023-01-13T08:45:53.655Z,95246
2023-01-13T08:47:02.308Z,95244
2023-01-13T08:48:11.253Z,95249
2023-01-13T08:49:21.026Z,95239
2023-01-13T08:50:30.772Z,95258
2023-01-13T08:51:40.570Z,95259
2023-01-13T08:52:50.326Z,95258
2023-01-13T08:54:00.103Z,95244
2023-01-13T08:55:08.814Z,95244
2023-01-13T08:56:18.569Z,95243
2023-01-13T08:57:28.365Z,95248
2023-01-13T08:58:38.069Z,95238
2023-01-13T08:59:47.805Z,95249
2023-01-13T09:00:57.716Z,95251
2023-01-13T09:02:07.482Z,95257
2023-01-13T09:03:17.033Z,95249
2023-01-13T09:04:26.823Z,95257
2023-01-13T09:05:36.548Z,95256
2023-01-13T09:06:46.285Z,95263
2023-01-13T09:07:56.012Z,95272
2023-01-13T09:09:05.780Z,95256
2023-01-13T09:10:15.475Z,95269
2023-01-13T09:11:25.211Z,95268
2023-01-13T09:12:33.982Z,95260
2023-01-13T09:13:43.706Z,95259
2023-01-13T09:14:52.462Z,95249
2023-01-13T09:16:02.358Z,95272
2023-01-13T09:17:12.026Z,95253
2023-01-13T09:18:20.770Z,95260
2023-01-13T09:19:30.524Z,95254
2023-01-13T09:20:40.281Z,95265
2023-01-13T09:21:50.009Z,95273
2023-01-13T09:22:59.817Z,95266
2023-01-13T09:24:10.567Z,95259
2023-01-13T09:25:20.314Z,95270
2023-01-13T09:26:30.068Z,95261
2023-01-13T09:27:39.785Z,95272
2023-01-13T09:28:49.543Z,95266
2023-01-13T09:29:59.273Z,95269
2023-01-13T09:31:09.103Z,95268
2023-01-13T09:32:18.807Z,95263
2023-01-13T09:33:27.607Z,95267
2023-01-13T09:34:37.316Z,95270
2023-01-13T09:35:46.036Z,95278
2023-01-13T09:36:55.831Z,95269
2023-01-13T09:38:05.606Z,95278
2023-01-13T09:39:14.377Z,95279
2023-01-13T09:40:23.164Z,95279
2023-01-13T09:41:32.918Z,95281
2023-01-13T09:42:42.670Z,95281
2023-01-13T09:43:52.445Z,95267
2023-01-13T09:45:02.222Z,95271
2023-01-13T09:46:11.992Z,95263
2023-01-13T09:47:21.731Z,95266
2023-01-13T09:48:31.522Z,95275
2023-01-13T09:49:40.320Z,95243
2023-01-13T09:50:50.097Z,95260
2023-01-13T09:51:58.848Z,95270
2023-01-13T09:53:08.604Z,95267
2023-01-13T09:54:18.342Z,95263
2023-01-13T09:55:28.248Z,95270
2023-01-13T09:56:37.849Z,95251
2023-01-13T09:57:45.575Z,95253
2023-01-13T09:58:55.337Z,95272
2023-01-13T10:00:05.084Z,95269
2023-01-13T10:01:13.891Z,95259
2023-01-13T10:02:23.668Z,95279
2023-01-13T10:03:33.500Z,95253
2023-01-13T10:04:43.279Z,95255
2023-01-13T10:05:51.938Z,95262
2023-01-13T10:07:00.713Z,95248
2023-01-13T10:08:10.466Z,95262
2023-01-13T10:09:20.240Z,95268
2023-01-13T10:10:29.066Z,95264
2023-01-13T10:11:37.829Z,95238
2023-01-13T10:12:46.588Z,95262
2023-01-13T10:13:56.358Z,95247
2023-01-13T10:15:06.114Z,95244
2023-01-13T10:16:15.924Z,95258
2023-01-13T10:17:25.631Z,95244
2023-01-13T10:18:35.420Z,95256
2023-01-13T10:19:45.147Z,95240
2023-01-13T10:20:54.883Z,95234
2023-01-13T10:22:03.618Z,95231
2023-01-13T10:23:13.359Z,95249
2023-01-13T10:24:23.162Z,95233
2023-01-13T10:25:31.902Z,95241
2023-01-13T10:26:40.668Z,95222
2023-01-13T10:27:50.445Z,95230
2023-01-13T10:29:00.198Z,95254
2023-01-13T10:30:09.955Z,95232
2023-01-13T10:31:19.774Z,95213
2023-01-13T10:32:28.435Z,95242
2023-01-13T10:33:38.218Z,95228
2023-01-13T10:34:47.926Z,95222
2023-01-13T10:35:56.689Z,95235
2023-01-13T10:37:06.373Z,95216
2023-01-13T10:38:15.024Z,95219
2023-01-13T10:39:24.765Z,95212
2023-01-13T10:40:34.586Z,95223
2023-01-13T10:41:44.343Z,95210
2023-01-13T10:42:54.108Z,95215
2023-01-13T10:44:03.881Z,95223
2023-01-13T10:45:13.604Z,95214
2023-01-13T10:46:23.473Z,95220
2023-01-13T10:47:32.197Z,95214
2023-01-13T10:48:41.983Z,95211
2023-01-13T10:49:51.773Z,95216
2023-01-13T10:51:00.528Z,95231
2023-01-13T10:52:10.363Z,95231
2023-01-13T10:53:19.177Z,95228
2023-01-13T10:54:28.900Z,95218
2023-01-13T10:55:38.641Z,95223
2023-01-13T10:56:48.392Z,95230
2023-01-13T10:57:58.132Z,95212
2023-01-13T10:59:07.930Z,95208
2023-01-13T11:00:17.833Z,95208
2023-01-13T11:01:27.569Z,95198
2023-01-13T11:02:36.377Z,95206
2023-01-13T11:03:46.049Z,95213
2023-01-13T11:04:55.880Z,95217
2023-01-13T11:06:05.542Z,95198
2023-01-13T11:07:15.329Z,95208
2023-01-13T11:08:25.092Z,95197
2023-01-13T11:09:34.884Z,95191
2023-01-13T11:10:43.663Z,95194
2023-01-13T11:11:53.401Z,95191
2023-01-13T11:13:04.145Z,95196
2023-01-13T11:14:13.911Z,95185
2023-01-13T11:15:23.647Z,95195
2023-01-13T11:16:32.422Z,95202
2023-01-13T11:17:43.139Z,95189
2023-01-13T11:18:52.042Z,95221
2023-01-13T11:20:01.649Z,95191
2023-01-13T11:21:11.430Z,95201
2023-01-13T11:22:21.235Z,95208
2023-01-13T11:23:30.977Z,95221
2023-01-13T11:24:39.748Z,95193
2023-01-13T11:25:49.496Z,95209
2023-01-13T11:26:59.292Z,95205
2023-01-13T11:28:09.155Z,95233
2023-01-13T11:29:18.921Z,95203
2023-01-13T11:30:28.658Z,95200
2023-01-13T11:31:38.434Z,95203
2023-01-13T11:32:48.181Z,95206
2023-01-13T11:33:57.973Z,95197
2023-01-13T11:35:07.688Z,95203
2023-01-13T11:36:20.259Z,95201
2023-01-13T11:37:27.186Z,95193
2023-01-13T11:38:36.910Z,95194
2023-01-13T11:39:46.688Z,95191
2023-01-13T11:40:56.424Z,95192
2023-01-13T11:42:06.192Z,95203
2023-01-13T11:43:15.988Z,95206
2023-01-13T11:44:25.735Z,95194
2023-01-13T11:45:34.509Z,95191
2023-01-13T11:46:44.268Z,95220
2023-01-13T11:47:52.028Z,95232
2023-01-13T11:49:01.874Z,95199
2023-01-13T11:50:11.641Z,95204
2023-01-13T11:51:21.451Z,95200
2023-01-13T11:52:31.215Z,95184
2023-01-13T11:53:41.015Z,95208
2023-01-13T11:54:48.805Z,95202
2023-01-13T11:55:58.535Z,95204
2023-01-13T11:57:07.339Z,95198
2023-01-13T11:58:17.197Z,95222
2023-01-13T11:59:26.920Z,95200
2023-01-13T12:00:35.691Z,95214
2023-01-13T12:01:45.453Z,95207
2023-01-13T12:02:55.723Z,95215
2023-01-13T12:04:05.317Z,95183
2023-01-13T12:05:13.997Z,95192
2023-01-13T12:06:22.846Z,95210
2023-01-13T12:07:32.611Z,95210
2023-01-13T12:08:42.366Z,95212
2023-01-13T12:09:52.123Z,95211
2023-01-13T12:11:01.927Z,95196
2023-01-13T12:12:11.719Z,95209
2023-01-13T12:13:21.525Z,95204
2023-01-13T12:14:30.333Z,95203
2023-01-13T12:15:40.179Z,95207
2023-01-13T12:16:49.930Z,95195
2023-01-13T12:17:59.607Z,95209
2023-01-13T12:19:09.314Z,95216
2023-01-13T12:20:19.022Z,95222
2023-01-13T12:21:28.769Z,95213
2023-01-13T12:22:38.526Z,95217
2023-01-13T12:23:47.278Z,95214
2023-01-13T12:24:57.027Z,95228
2023-01-13T12:26:06.848Z,95200
2023-01-13T12:27:16.589Z,95225
2023-01-13T12:28:26.383Z,95234
2023-01-13T12:29:36.072Z,95214
2023-01-13T12:30:45.934Z,95232
2023-01-13T12:31:55.707Z,95242
2023-01-13T12:33:05.407Z,95223
2023-01-13T12:34:15.172Z,95221
2023-01-13T12:35:24.872Z,95232
2023-01-13T12:36:34.552Z,95219
2023-01-13T12:37:43.331Z,95229
2023-01-13T12:38:53.017Z,95223
2023-01-13T12:40:02.747Z,95243
2023-01-13T12:41:11.514Z,95226
2023-01-13T12:42:20.247Z,95245
2023-01-13T12:43:29.999Z,95244
2023-01-13T12:44:39.703Z,95227
2023-01-13T12:45:49.465Z,95243
2023-01-13T12:46:58.221Z,95242
2023-01-13T12:48:08.035Z,95241
2023-01-13T12:49:17.829Z,95232
2023-01-13T12:50:27.577Z,95246
2023-01-13T12:51:37.302Z,95256
2023-01-13T12:52:46.053Z,95244
2023-01-13T12:53:55.779Z,95241
2023-01-13T12:55:05.663Z,95279
2023-01-13T12:56:14.474Z,95243
2023-01-13T12:57:24.229Z,95255
2023-01-13T12:58:33.965Z,95268
2023-01-13T12:59:43.696Z,95255
2023-01-13T13:00:53.532Z,95235
2023-01-13T13:02:03.551Z,95236
2023-01-13T13:03:12.993Z,95233
2023-01-13T13:04:22.758Z,95231
2023-01-13T13:05:32.404Z,95232
2023-01-13T13:06:41.079Z,95227
2023-01-13T13:07:50.753Z,95243
2023-01-13T13:09:01.115Z,95238
2023-01-13T13:10:09.204Z,95240
2023-01-13T13:11:18.922Z,95226
2023-01-13T13:12:27.675Z,95239
2023-01-13T13:13:37.504Z,95241
2023-01-13T13:14:47.285Z,95233
2023-01-13T13:15:57.073Z,95234
2023-01-13T13:17:06.848Z,95228
2023-01-13T13:18:15.679Z,95236
2023-01-13T13:19:24.421Z,95237
2023-01-13T13:20:34.121Z,95244
2023-01-13T13:21:43.844Z,95243
2023-01-13T13:22:53.642Z,95240
2023-01-13T13:24:03.388Z,95236
2023-01-13T13:25:13.160Z,95226
2023-01-13T13:26:21.915Z,95232
2023-01-13T13:27:31.694Z,95237
2023-01-13T13:28:41.473Z,95218
2023-01-13T13:29:51.223Z,95223
2023-01-13T13:31:01.083Z,95228
2023-01-13T13:32:10.783Z,95219
2023-01-13T13:33:20.512Z,95228
2023-01-13T13:34:30.241Z,95231
2023-01-13T13:35:39.989Z,95218
2023-01-13T13:36:48.717Z,95235
2023-01-13T13:37:58.493Z,95226
2023-01-13T13:39:08.181Z,95246
2023-01-13T13:40:17.949Z,95254
2023-01-13T13:41:27.705Z,95270
2023-01-13T13:42:37.459Z,95259
2023-01-13T13:43:47.365Z,95272
2023-01-13T13:44:57.099Z,95266
2023-01-13T13:46:07.135Z,95268
2023-01-13T13:47:16.811Z,95248
2023-01-13T13:48:25.685Z,95252
2023-01-13T13:49:35.575Z,95254
2023-01-13T13:50:45.350Z,95253
2023-01-13T13:51:54.158Z,95260
2023-01-13T13:53:03.916Z,95260
2023-01-13T13:54:13.641Z,95260
2023-01-13T13:55:23.374Z,95258
2023-01-13T13:56:33.109Z,95273
2023-01-13T13:57:41.924Z,95262
2023-01-13T13:58:51.750Z,95270
2023-01-13T14:00:01.473Z,95269
2023-01-13T14:01:10.327Z,95270
2023-01-13T14:02:20.071Z,95300
2023-01-13T14:03:29.756Z,95260
2023-01-13T14:04:40.657Z,95254
2023-01-13T14:05:50.324Z,95253
2023-01-13T14:07:00.103Z,95273
2023-01-13T14:08:08.749Z,95269
2023-01-13T14:09:18.494Z,95280
2023-01-13T14:10:29.029Z,95283
2023-01-13T14:11:38.778Z,95289
2023-01-13T14:12:47.512Z,95283
2023-01-13T14:13:57.279Z,95308
2023-01-13T14:15:06.997Z,95296
2023-01-13T14:16:15.772Z,95331
2023-01-13T14:17:25.517Z,95357
2023-01-13T14:18:35.258Z,95372
2023-01-13T14:19:45.021Z,95392
2023-01-13T14:20:54.726Z,95413
2023-01-13T14:22:04.485Z,95410
2023-01-13T14:23:14.252Z,95407
2023-01-13T14:24:23.979Z,95423
2023-01-13T14:25:32.716Z,95410
2023-01-13T14:26:42.428Z,95417
2023-01-13T14:27:52.200Z,95411
2023-01-13T14:29:01.915Z,95439
2023-01-13T14:30:11.651Z,95450
2023-01-13T14:31:21.392Z,95439
2023-01-13T14:32:30.115Z,95420
2023-01-13T14:33:39.937Z,95430
2023-01-13T14:34:49.718Z,95431
2023-01-13T14:35:59.416Z,95426
2023-01-13T14:37:09.182Z,95428
2023-01-13T14:38:19.028Z,95436
2023-01-13T14:39:28.847Z,95424
2023-01-13T14:40:38.587Z,95434
2023-01-13T14:41:47.291Z,95422
2023-01-13T14:42:57.013Z,95425
2023-01-13T14:44:05.830Z,95421
2023-01-13T14:45:15.640Z,95434
2023-01-13T14:46:25.652Z,95432
2023-01-13T14:47:35.118Z,95430
2023-01-13T14:48:44.873Z,95429
2023-01-13T14:49:54.657Z,95425
2023-01-13T14:51:04.397Z,95426
2023-01-13T14:52:14.154Z,95428
2023-01-13T14:53:23.880Z,95425
2023-01-13T14:54:33.626Z,95434
2023-01-13T14:55:42.408Z,95438